Terminal Aerodrome Forecast
Issued by NWS La Crosse, WI

Home | Current Version | Previous Version | Text Only | Print | Product List | Glossary On
Versions: 1 2 3 4 5 6 7 8 9 10 11 12 13 14 15 16 17 18 19 20 21 22 23 24 25 26 27 28
000
FTUS43 KARX 111855 AAB
TAFRST
TAF AMD
KRST 111855Z 1119/1218 33014G21KT P6SM BKN012
     FM112000 33022G34KT P6SM BKN025
     FM120300 33020G30KT P6SM SCT020
     FM120600 33016G24KT P6SM SCT200
     FM121400 31012KT P6SM SCT120=

USA.gov is the U.S. government's official web portal to all federal, state and local government web resources and services.